Time;durP1;ratioP1;P1;durP2;ratioP2;P2;SDS_P1;SDS_P2;PMS_P1;PMS_P2;Temp;Humidity;BMP_temperature;BMP_pressure;BME280_temperature;BME280_humidity;BME280_pressure;Samples;Min_cycle;Max_cycle;Signal;HPM_P1;HPM_P2
2022/07/20 00:02:23;;;;;;;3.30;2.30;;;25.40;58.10;;;;;;4990718;28;20058;-73
2022/07/20 00:04:50;;;;;;;3.95;2.88;;;25.40;58.10;;;;;;4990355;28;20068;-73
2022/07/20 00:07:17;;;;;;;2.78;2.10;;;25.40;58.10;;;;;;4991475;28;20519;-73
2022/07/20 00:12:28;;;;;;;3.95;2.38;;;25.30;57.90;;;;;;4992578;28;20141;-73
2022/07/20 00:14:54;;;;;;;3.85;2.42;;;25.30;58.00;;;;;;4990539;28;20161;-73
2022/07/20 00:17:22;;;;;;;2.83;2.30;;;25.30;57.90;;;;;;4990660;28;20074;-73
2022/07/20 00:19:49;;;;;;;3.10;2.40;;;25.30;57.90;;;;;;4991483;28;20054;-73
2022/07/20 00:22:16;;;;;;;3.30;2.28;;;24.70;59.30;;;;;;4990486;28;20084;-73
2022/07/20 00:24:43;;;;;;;4.38;2.65;;;25.30;57.90;;;;;;4990055;28;20058;-73
2022/07/20 00:27:09;;;;;;;4.10;2.40;;;25.30;57.80;;;;;;5003860;28;20050;-73
2022/07/20 00:29:36;;;;;;;3.90;2.30;;;25.20;57.70;;;;;;5010102;28;20068;-73
2022/07/20 00:32:03;;;;;;;3.58;2.50;;;25.20;57.70;;;;;;5009498;28;20137;-73
2022/07/20 00:34:32;;;;;;;4.03;2.20;;;25.20;57.70;;;;;;5009577;28;20053;-73
2022/07/20 00:36:58;;;;;;;4.38;2.58;;;25.30;57.80;;;;;;5009902;28;20542;-73
2022/07/20 00:39:25;;;;;;;2.88;2.30;;;25.20;57.60;;;;;;5009962;28;20108;-73
2022/07/20 00:41:52;;;;;;;3.70;2.50;;;25.20;57.60;;;;;;5007828;28;20152;-73
2022/07/20 00:44:19;;;;;;;4.28;2.85;;;25.20;57.60;;;;;;5009733;28;20520;-73
2022/07/20 00:46:47;;;;;;;2.58;2.22;;;25.20;57.60;;;;;;5009588;28;20162;-73
2022/07/20 00:49:14;;;;;;;4.35;2.20;;;25.20;57.60;;;;;;5009842;28;20061;-74
2022/07/20 00:51:43;;;;;;;4.20;2.67;;;25.20;57.60;;;;;;5009869;28;20133;-73
2022/07/20 00:54:10;;;;;;;2.72;2.35;;;25.20;57.60;;;;;;5009324;28;20045;-73
2022/07/20 00:56:37;;;;;;;3.67;2.50;;;25.20;57.60;;;;;;5001135;28;20072;-73
2022/07/20 00:59:03;;;;;;;6.03;2.40;;;25.20;57.60;;;;;;4991582;28;20141;-73
2022/07/20 01:01:31;;;;;;;2.90;2.22;;;25.20;58.20;;;;;;4990042;28;20064;-73
2022/07/20 01:03:58;;;;;;;4.35;2.50;;;25.20;57.60;;;;;;4990023;28;20058;-73
2022/07/20 01:06:25;;;;;;;2.97;2.53;;;25.10;57.50;;;;;;4989874;28;20060;-73
2022/07/20 01:08:53;;;;;;;3.03;2.30;;;25.10;57.40;;;;;;4989978;28;20550;-73
2022/07/20 01:11:19;;;;;;;3.67;2.35;;;25.10;57.50;;;;;;4999688;28;20128;-73
2022/07/20 01:13:46;;;;;;;3.20;2.30;;;25.10;57.40;;;;;;5011184;28;20128;-73
2022/07/20 01:16:13;;;;;;;4.20;2.47;;;25.10;57.40;;;;;;5013170;28;20136;-73
2022/07/20 01:18:40;;;;;;;3.33;2.55;;;25.10;57.40;;;;;;5013296;28;20509;-73
2022/07/20 01:21:08;;;;;;;2.97;2.42;;;25.10;57.50;;;;;;5013103;28;20141;-73
2022/07/20 01:23:35;;;;;;;3.20;2.60;;;25.10;57.40;;;;;;5012700;28;20054;-73
2022/07/20 01:26:02;;;;;;;3.10;2.25;;;25.10;57.50;;;;;;5011424;28;20146;-73
2022/07/20 01:28:29;;;;;;;2.75;2.20;;;25.10;57.50;;;;;;5012756;28;20064;-73
2022/07/20 01:30:55;;;;;;;2.75;2.33;;;24.90;57.30;;;;;;5012987;28;20082;-73
2022/07/20 01:33:22;;;;;;;2.95;2.42;;;24.90;57.40;;;;;;5012471;28;20050;-73
2022/07/20 01:35:49;;;;;;;3.25;2.40;;;25.00;57.50;;;;;;5012838;28;20133;-73
2022/07/20 01:38:17;;;;;;;2.60;2.20;;;25.00;57.50;;;;;;5012992;28;20058;-73
2022/07/20 01:40:44;;;;;;;5.00;2.63;;;25.00;57.50;;;;;;5013015;28;20136;-73
2022/07/20 01:43:11;;;;;;;2.63;2.22;;;24.90;57.40;;;;;;4998192;28;20054;-73
2022/07/20 01:45:37;;;;;;;4.75;2.30;;;24.80;59.70;;;;;;4993263;28;20068;-73
2022/07/20 01:48:05;;;;;;;4.10;2.50;;;25.00;57.50;;;;;;4993163;28;20168;-73
2022/07/20 01:50:31;;;;;;;4.13;2.35;;;25.00;57.70;;;;;;4993335;28;20412;-73
2022/07/20 01:52:58;;;;;;;2.65;2.20;;;25.00;57.60;;;;;;4992622;28;20133;-73
2022/07/20 01:55:26;;;;;;;3.22;2.40;;;25.00;57.60;;;;;;4993011;28;20062;-73
2022/07/20 01:57:53;;;;;;;2.90;2.38;;;25.00;57.50;;;;;;5006180;28;20133;-73
2022/07/20 02:00:20;;;;;;;3.45;2.25;;;24.90;57.50;;;;;;5012529;28;20061;-73
2022/07/20 02:02:47;;;;;;;3.10;2.30;;;24.90;57.50;;;;;;5012207;28;20138;-73
2022/07/20 02:05:13;;;;;;;3.72;2.17;;;24.90;57.50;;;;;;4996154;28;20161;-73
2022/07/20 02:07:40;;;;;;;3.35;2.40;;;24.90;57.50;;;;;;5012404;28;20133;-73
2022/07/20 02:10:08;;;;;;;3.83;2.67;;;24.80;57.50;;;;;;5012271;28;20062;-73
2022/07/20 02:12:36;;;;;;;2.80;2.15;;;24.90;57.50;;;;;;4998728;28;20060;-73
2022/07/20 02:15:04;;;;;;;3.55;2.55;;;24.90;57.50;;;;;;4992497;28;20484;-73
2022/07/20 02:17:31;;;;;;;3.50;2.40;;;24.90;57.50;;;;;;4992643;28;20225;-73
2022/07/20 02:19:57;;;;;;;3.17;2.40;;;24.90;57.50;;;;;;4992486;28;20062;-73
2022/07/20 02:22:24;;;;;;;4.20;2.40;;;24.90;57.50;;;;;;4991700;28;20502;-73
2022/07/20 02:24:51;;;;;;;2.55;2.22;;;24.80;57.50;;;;;;4992427;28;20141;-73
2022/07/20 02:27:17;;;;;;;3.90;2.33;;;24.80;57.50;;;;;;5005299;28;20078;-73
2022/07/20 02:29:45;;;;;;;4.00;2.03;;;24.70;57.40;;;;;;5012131;28;20562;-73
2022/07/20 02:32:12;;;;;;;3.03;2.40;;;24.80;57.50;;;;;;5011944;28;20058;-73
2022/07/20 02:34:39;;;;;;;3.67;2.58;;;24.80;57.50;;;;;;5011306;28;20144;-73
2022/07/20 02:37:05;;;;;;;3.28;2.30;;;24.80;57.50;;;;;;5011531;28;20050;-73
2022/07/20 02:39:32;;;;;;;2.58;2.17;;;24.80;57.50;;;;;;5011767;28;20494;-73
2022/07/20 02:41:59;;;;;;;4.25;2.33;;;24.80;57.50;;;;;;4999007;28;20054;-73
2022/07/20 02:44:25;;;;;;;5.95;2.53;;;24.70;57.50;;;;;;4991937;28;20055;-73
2022/07/20 02:46:54;;;;;;;3.08;2.50;;;24.70;57.50;;;;;;4991767;28;20058;-73
2022/07/20 02:49:20;;;;;;;3.47;2.60;;;24.60;57.40;;;;;;4991873;28;20512;-73
2022/07/20 02:51:48;;;;;;;3.72;2.30;;;24.60;57.40;;;;;;4991729;28;20050;-73
2022/07/20 02:54:14;;;;;;;2.72;2.33;;;24.70;57.50;;;;;;4991362;28;20129;-74
2022/07/20 02:56:41;;;;;;;3.80;2.30;;;24.70;57.50;;;;;;5003618;28;20534;-73
2022/07/20 02:59:08;;;;;;;3.08;2.20;;;24.70;57.50;;;;;;5011436;28;20054;-74
2022/07/20 03:01:35;;;;;;;3.72;2.50;;;24.60;57.50;;;;;;5012543;28;20133;-74
2022/07/20 03:04:03;;;;;;;2.90;2.60;;;24.60;57.50;;;;;;5011343;28;20053;-75
2022/07/20 03:06:29;;;;;;;3.05;2.38;;;24.60;57.50;;;;;;5011204;28;20064;-77
2022/07/20 03:08:56;;;;;;;2.50;2.30;;;24.60;57.50;;;;;;5011415;28;20058;-76
2022/07/20 03:11:23;;;;;;;4.45;2.47;;;24.50;57.40;;;;;;4999079;28;20058;-77
2022/07/20 03:13:50;;;;;;;3.13;2.40;;;24.60;57.50;;;;;;4990880;28;20133;-77
2022/07/20 03:16:17;;;;;;;2.92;2.42;;;24.60;57.50;;;;;;4988419;28;20411;-77
2022/07/20 03:18:44;;;;;;;3.13;2.50;;;24.60;57.60;;;;;;4991589;28;20146;-77
2022/07/20 03:21:12;;;;;;;3.60;2.30;;;24.50;57.60;;;;;;5008022;28;20064;-77
2022/07/20 03:23:38;;;;;;;3.72;2.63;;;24.60;57.60;;;;;;4991432;28;20057;-77
2022/07/20 03:26:05;;;;;;;2.83;2.20;;;24.60;57.60;;;;;;4991584;28;20050;-76
2022/07/20 03:28:32;;;;;;;2.55;2.30;;;24.60;57.70;;;;;;5007952;28;20180;-76
2022/07/20 03:30:59;;;;;;;3.08;2.35;;;24.70;57.80;;;;;;4991453;28;20555;-77
2022/07/20 03:33:25;;;;;;;2.58;2.22;;;24.50;57.70;;;;;;4992102;28;20133;-76
2022/07/20 03:35:52;;;;;;;4.03;2.53;;;25.40;60.30;;;;;;5007547;28;20064;-76
2022/07/20 03:38:21;;;;;;;3.42;2.38;;;24.50;57.70;;;;;;4991135;28;20137;-76
2022/07/20 03:40:48;;;;;;;3.45;2.17;;;24.50;57.70;;;;;;5006994;28;20054;-76
2022/07/20 03:43:17;;;;;;;3.47;2.35;;;24.50;57.70;;;;;;4991198;28;20381;-77
2022/07/20 03:45:44;;;;;;;3.95;2.30;;;24.50;57.80;;;;;;4992267;28;20051;-76
2022/07/20 03:48:10;;;;;;;7.40;2.70;;;24.50;57.80;;;;;;4991171;28;20065;-76
2022/07/20 03:50:37;;;;;;;2.60;2.15;;;24.50;57.80;;;;;;4991349;28;20146;-77
2022/07/20 03:53:04;;;;;;;3.40;2.30;;;24.50;57.80;;;;;;4990766;28;20085;-77
2022/07/20 03:55:32;;;;;;;3.38;2.50;;;24.40;57.80;;;;;;4992199;28;20815;-76
2022/07/20 03:57:59;;;;;;;5.63;2.35;;;24.40;57.80;;;;;;4990883;28;20064;-76
2022/07/20 04:00:25;;;;;;;3.42;2.55;;;24.40;57.80;;;;;;4990935;28;20057;-73
2022/07/20 04:02:52;;;;;;;4.18;2.67;;;24.30;57.80;;;;;;4990247;28;20571;-74
2022/07/20 04:05:19;;;;;;;3.97;2.40;;;24.40;57.90;;;;;;4990673;28;20146;-74
2022/07/20 04:07:46;;;;;;;2.92;2.30;;;24.40;57.90;;;;;;4990248;28;20050;-74
2022/07/20 04:10:12;;;;;;;3.20;2.45;;;24.30;57.80;;;;;;4995182;28;20422;-74
2022/07/20 04:12:41;;;;;;;3.72;2.40;;;24.30;57.80;;;;;;5009874;28;20177;-74
2022/07/20 04:15:08;;;;;;;3.45;2.50;;;24.30;59.70;;;;;;5009706;28;20053;-74
2022/07/20 04:17:35;;;;;;;3.40;2.38;;;23.10;59.10;;;;;;5009842;28;20085;-74
2022/07/20 04:20:04;;;;;;;3.22;2.38;;;24.30;57.80;;;;;;5010018;28;20686;-74
2022/07/20 04:22:31;;;;;;;3.85;2.50;;;24.30;57.80;;;;;;5009812;28;20411;-74
2022/07/20 04:24:57;;;;;;;2.70;2.20;;;24.30;57.70;;;;;;5009049;28;20133;-74
2022/07/20 04:27:24;;;;;;;2.80;2.50;;;24.30;57.70;;;;;;5009406;28;20168;-74
2022/07/20 04:29:52;;;;;;;3.30;2.38;;;24.60;57.90;;;;;;5009781;28;20388;-74
2022/07/20 04:32:19;;;;;;;4.07;2.60;;;24.30;57.60;;;;;;5009859;28;20141;-74
2022/07/20 04:34:46;;;;;;;3.85;2.40;;;24.30;57.60;;;;;;5009505;28;20483;-74
2022/07/20 04:37:12;;;;;;;2.78;2.30;;;24.30;57.70;;;;;;5009879;28;20527;-74
2022/07/20 04:39:39;;;;;;;4.18;2.55;;;24.30;57.60;;;;;;5009285;28;20058;-73
2022/07/20 04:42:06;;;;;;;4.40;2.58;;;24.30;57.60;;;;;;4970979;28;20065;-74
2022/07/20 04:44:33;;;;;;;3.20;2.20;;;24.30;57.60;;;;;;4970346;28;20093;-74
2022/07/20 04:47:01;;;;;;;3.03;2.30;;;24.30;57.60;;;;;;4973792;28;20141;-74
2022/07/20 04:49:28;;;;;;;3.08;2.25;;;24.30;57.50;;;;;;4974596;28;20050;-74
2022/07/20 04:51:55;;;;;;;5.25;2.58;;;24.30;57.50;;;;;;4974491;28;20058;-74
2022/07/20 04:54:22;;;;;;;4.82;2.65;;;24.30;57.50;;;;;;4974320;28;20125;-74
2022/07/20 04:56:49;;;;;;;3.00;2.40;;;24.30;57.50;;;;;;5013016;28;20496;-74
2022/07/20 04:59:16;;;;;;;2.42;2.20;;;24.30;57.50;;;;;;5013251;28;20455;-74
2022/07/20 05:01:42;;;;;;;2.95;2.42;;;24.30;57.60;;;;;;5013472;28;20263;-74
2022/07/20 05:04:11;;;;;;;4.53;2.35;;;24.30;57.60;;;;;;5014274;28;20050;-74
2022/07/20 05:06:37;;;;;;;5.28;2.70;;;24.30;57.50;;;;;;5013463;28;20135;-74
2022/07/20 05:09:07;;;;;;;3.20;2.58;;;24.20;57.50;;;;;;5013392;28;20061;-74
2022/07/20 05:11:33;;;;;;;2.90;2.10;;;24.20;57.50;;;;;;4993410;28;20086;-74
2022/07/20 05:14:00;;;;;;;3.65;2.42;;;24.20;57.50;;;;;;4993491;28;20537;-74
2022/07/20 05:16:27;;;;;;;2.55;2.35;;;24.30;57.50;;;;;;4993727;28;20144;-74
2022/07/20 05:18:53;;;;;;;2.78;2.33;;;24.20;57.40;;;;;;4993639;28;20442;-74
2022/07/20 05:21:21;;;;;;;3.80;2.30;;;24.20;57.40;;;;;;4993127;28;20062;-74
2022/07/20 05:23:48;;;;;;;3.03;2.42;;;24.10;57.30;;;;;;4993119;28;20078;-74
2022/07/20 05:26:15;;;;;;;3.47;2.65;;;24.30;59.70;;;;;;4994374;28;20097;-73
2022/07/20 05:28:42;;;;;;;3.42;2.50;;;24.20;57.40;;;;;;4993494;28;20082;-74
2022/07/20 05:31:09;;;;;;;2.83;2.28;;;24.20;57.40;;;;;;4993365;28;20129;-74
2022/07/20 05:33:36;;;;;;;2.80;2.40;;;24.20;57.30;;;;;;4993126;28;20069;-74
2022/07/20 05:36:03;;;;;;;3.15;2.30;;;24.20;57.30;;;;;;4993243;28;20082;-74
2022/07/20 05:38:31;;;;;;;2.55;2.20;;;24.30;60.30;;;;;;4993371;28;20141;-73
2022/07/20 05:40:58;;;;;;;3.03;2.58;;;24.30;57.40;;;;;;4993845;28;20498;-74
2022/07/20 05:43:25;;;;;;;2.45;2.20;;;24.10;57.30;;;;;;4993028;28;20140;-74
2022/07/20 05:45:52;;;;;;;2.88;2.58;;;24.40;57.40;;;;;;4993150;28;20137;-74
2022/07/20 05:48:19;;;;;;;4.18;2.50;;;24.20;57.30;;;;;;4993124;28;20069;-73
2022/07/20 05:50:46;;;;;;;3.30;2.65;;;24.30;57.30;;;;;;4994135;28;20046;-77
2022/07/20 05:53:13;;;;;;;9.73;3.50;;;24.30;57.30;;;;;;4992937;28;20054;-76
2022/07/20 05:55:42;;;;;;;4.80;2.60;;;24.30;57.20;;;;;;4992911;28;20488;-76
2022/07/20 05:58:09;;;;;;;5.18;3.00;;;24.40;57.10;;;;;;4991287;28;20086;-76
2022/07/20 06:00:37;;;;;;;3.63;2.88;;;24.50;57.00;;;;;;4993018;28;20133;-76
2022/07/20 06:03:04;;;;;;;3.53;2.90;;;24.50;56.80;;;;;;4992675;28;20077;-74
2022/07/20 06:05:31;;;;;;;3.53;2.88;;;24.60;56.60;;;;;;4994639;28;20653;-73
2022/07/20 06:08:00;;;;;;;4.50;2.78;;;24.70;56.70;;;;;;4993169;28;20060;-74
2022/07/20 06:10:27;;;;;;;6.78;2.90;;;24.00;58.60;;;;;;4994053;28;20077;-73
2022/07/20 06:12:55;;;;;;;7.47;2.83;;;24.90;56.40;;;;;;4993457;28;20484;-73
2022/07/20 06:15:22;;;;;;;4.30;2.72;;;25.10;56.40;;;;;;4992595;28;20511;-74
2022/07/20 06:17:49;;;;;;;4.05;2.70;;;25.20;56.30;;;;;;4993448;28;20070;-75
2022/07/20 06:20:16;;;;;;;7.03;2.85;;;25.30;56.00;;;;;;4993637;28;20129;-73
2022/07/20 06:22:44;;;;;;;4.47;3.05;;;25.50;55.90;;;;;;4992201;28;20084;-73
2022/07/20 06:25:11;;;;;;;3.90;2.50;;;25.60;55.70;;;;;;4992229;28;20141;-73
2022/07/20 06:27:38;;;;;;;3.80;2.67;;;25.70;55.60;;;;;;4992540;28;20145;-74
2022/07/20 06:30:07;;;;;;;3.40;2.78;;;25.80;55.50;;;;;;4992537;28;20137;-74
2022/07/20 06:32:34;;;;;;;4.75;2.67;;;25.90;55.30;;;;;;4992402;28;20096;-74
2022/07/20 06:35:01;;;;;;;3.25;2.70;;;26.00;55.20;;;;;;4976402;28;20046;-74
2022/07/20 06:37:28;;;;;;;3.15;2.35;;;26.10;55.10;;;;;;5001915;28;20129;-73
2022/07/20 06:39:55;;;;;;;4.80;2.50;;;26.20;55.00;;;;;;4992241;28;20077;-73
2022/07/20 06:42:21;;;;;;;6.43;3.05;;;26.30;54.90;;;;;;4992036;28;20081;-73
2022/07/20 06:44:48;;;;;;;6.47;2.88;;;26.40;54.90;;;;;;4991919;28;20160;-73
2022/07/20 06:47:16;;;;;;;8.77;2.88;;;26.50;54.80;;;;;;4992087;28;20065;-73
2022/07/20 06:49:44;;;;;;;3.78;2.88;;;26.60;54.80;;;;;;4993107;28;20046;-73
2022/07/20 06:52:11;;;;;;;4.68;2.60;;;26.70;54.70;;;;;;4993170;28;20112;-73
2022/07/20 06:54:37;;;;;;;6.07;2.60;;;26.80;54.70;;;;;;4991753;28;20384;-73
2022/07/20 06:57:04;;;;;;;5.22;2.70;;;26.80;54.60;;;;;;4991370;28;20129;-74
2022/07/20 06:59:31;;;;;;;3.58;2.80;;;26.90;54.50;;;;;;4991996;28;20144;-77
2022/07/20 07:01:58;;;;;;;3.88;2.90;;;27.00;54.50;;;;;;4992206;28;20062;-77
2022/07/20 07:04:26;;;;;;;4.10;2.50;;;27.10;54.50;;;;;;4992563;28;20056;-78
2022/07/20 07:06:53;;;;;;;3.25;2.30;;;27.10;54.40;;;;;;4991604;28;20054;-78
2022/07/20 07:09:20;;;;;;;20.45;3.28;;;27.20;54.40;;;;;;4989066;28;20050;-78
2022/07/20 07:11:46;;;;;;;5.55;2.30;;;27.30;54.30;;;;;;4991992;28;20048;-78
2022/07/20 07:14:13;;;;;;;5.53;2.80;;;27.40;54.30;;;;;;4991852;28;20049;-78
2022/07/20 07:16:40;;;;;;;3.65;2.50;;;27.50;54.30;;;;;;4989490;28;20058;-78
2022/07/20 07:19:06;;;;;;;6.10;2.95;;;27.50;54.20;;;;;;4991533;28;20133;-78
2022/07/20 07:21:34;;;;;;;2.92;2.10;;;27.60;54.30;;;;;;4992548;28;20068;-78
2022/07/20 07:24:01;;;;;;;2.95;2.15;;;27.60;54.20;;;;;;4989255;28;20054;-78
2022/07/20 07:26:28;;;;;;;3.53;2.72;;;27.70;54.30;;;;;;4991987;28;20058;-77
2022/07/20 07:28:55;;;;;;;3.97;2.53;;;27.70;54.20;;;;;;4991625;28;20142;-74
2022/07/20 07:31:21;;;;;;;3.92;2.80;;;27.80;54.20;;;;;;4991101;28;20057;-73
2022/07/20 07:33:48;;;;;;;6.53;2.38;;;27.90;54.20;;;;;;4990627;28;20089;-74
2022/07/20 07:36:15;;;;;;;3.47;2.30;;;27.90;54.20;;;;;;4990790;28;20054;-74
2022/07/20 07:38:43;;;;;;;2.70;2.20;;;28.00;54.20;;;;;;5007602;28;20429;-74
2022/07/20 07:41:10;;;;;;;5.25;2.83;;;28.00;57.30;;;;;;5010500;28;20077;-72
2022/07/20 07:43:36;;;;;;;4.22;2.15;;;28.00;54.10;;;;;;5010415;28;20459;-73
2022/07/20 07:46:03;;;;;;;6.25;2.53;;;28.10;54.20;;;;;;5011740;28;20679;-74
2022/07/20 07:48:30;;;;;;;4.45;2.30;;;28.20;54.20;;;;;;5010703;28;20140;-73
2022/07/20 07:50:57;;;;;;;3.65;2.47;;;28.20;54.20;;;;;;4997315;28;20133;-73
2022/07/20 07:53:24;;;;;;;2.65;2.22;;;28.20;54.20;;;;;;4991292;28;20062;-73
2022/07/20 07:55:52;;;;;;;3.90;2.28;;;28.30;54.20;;;;;;4990521;28;20137;-73
2022/07/20 07:58:19;;;;;;;5.25;2.67;;;28.30;54.10;;;;;;4990742;28;20065;-74
2022/07/20 08:00:46;;;;;;;4.20;2.58;;;28.40;54.20;;;;;;4988393;28;20479;-74
2022/07/20 08:03:13;;;;;;;5.63;2.67;;;28.40;54.20;;;;;;4988505;28;20510;-74
2022/07/20 08:05:39;;;;;;;3.45;2.40;;;28.60;54.60;;;;;;4988938;28;20125;-74
2022/07/20 08:08:07;;;;;;;7.28;2.97;;;28.50;54.20;;;;;;4999319;28;20160;-74
2022/07/20 08:10:34;;;;;;;4.80;2.50;;;28.50;54.20;;;;;;5008591;28;20053;-72
2022/07/20 08:13:03;;;;;;;5.25;2.65;;;28.60;54.30;;;;;;5008165;28;20145;-73
2022/07/20 08:15:29;;;;;;;5.95;2.50;;;28.60;54.20;;;;;;5008793;28;20054;-74
2022/07/20 08:17:56;;;;;;;5.95;2.75;;;28.60;54.20;;;;;;5010407;28;20057;-73
2022/07/20 08:20:23;;;;;;;4.15;2.65;;;28.60;54.20;;;;;;5009822;28;20133;-74
2022/07/20 08:22:50;;;;;;;5.13;2.65;;;28.60;54.20;;;;;;5009708;28;20054;-77
2022/07/20 08:25:17;;;;;;;3.65;2.38;;;28.60;54.20;;;;;;5009887;28;20129;-76
2022/07/20 08:27:44;;;;;;;5.30;2.78;;;28.70;54.30;;;;;;5010187;28;20050;-74
2022/07/20 08:30:13;;;;;;;5.45;2.95;;;28.70;54.20;;;;;;5010216;28;20060;-74
2022/07/20 08:32:39;;;;;;;8.10;2.80;;;28.80;54.30;;;;;;5004197;28;20606;-74
2022/07/20 08:35:07;;;;;;;5.47;2.67;;;28.80;54.30;;;;;;4989761;28;20521;-74
2022/07/20 08:37:34;;;;;;;5.57;2.83;;;28.80;54.30;;;;;;4991467;28;20054;-74
2022/07/20 08:40:00;;;;;;;3.95;2.70;;;28.80;54.30;;;;;;4990391;28;20084;-74
2022/07/20 08:42:27;;;;;;;5.68;2.60;;;28.80;54.40;;;;;;4990368;28;20056;-74
2022/07/20 08:44:54;;;;;;;9.48;3.20;;;28.80;54.40;;;;;;4989487;28;20480;-74
2022/07/20 08:47:22;;;;;;;7.10;3.03;;;28.80;54.30;;;;;;4990256;28;20085;-74
2022/07/20 08:49:51;;;;;;;7.13;3.10;;;28.70;54.20;;;;;;4990410;28;20133;-75
2022/07/20 08:52:18;;;;;;;7.63;3.42;;;28.70;54.20;;;;;;4996784;28;20077;-74
2022/07/20 08:54:45;;;;;;;6.30;2.95;;;28.70;54.30;;;;;;5009432;28;20133;-74
2022/07/20 08:57:13;;;;;;;4.95;3.20;;;28.60;54.20;;;;;;5010073;28;20054;-74
2022/07/20 08:59:40;;;;;;;5.82;3.20;;;28.60;54.20;;;;;;5009704;28;20483;-73
2022/07/20 09:02:08;;;;;;;7.28;3.38;;;28.60;54.30;;;;;;5009792;28;20054;-73
2022/07/20 09:04:49;;;;;;;7.70;2.97;;;28.60;54.40;;;;;;5009682;28;20415;-73
2022/07/20 09:07:15;;;;;;;5.72;3.30;;;28.60;54.40;;;;;;5001143;28;20414;-73
2022/07/20 09:09:42;;;;;;;5.80;2.97;;;28.60;54.50;;;;;;4990029;28;20078;-73
2022/07/20 09:12:09;;;;;;;5.18;3.20;;;28.60;54.60;;;;;;4990234;28;20072;-73
2022/07/20 09:14:38;;;;;;;8.93;3.25;;;28.50;54.60;;;;;;4989703;28;20055;-73
2022/07/20 09:17:19;;;;;;;5.50;3.17;;;28.50;54.60;;;;;;4989312;28;20059;-73
2022/07/20 09:19:58;;;;;;;5.38;3.45;;;28.50;54.50;;;;;;4989343;28;20420;-73
2022/07/20 09:22:32;;;;;;;5.72;3.10;;;28.50;54.60;;;;;;4993687;28;20069;-73
2022/07/20 09:25:07;;;;;;;6.15;3.75;;;28.40;54.70;;;;;;4989889;28;20076;-73
2022/07/20 09:27:33;;;;;;;;;;;28.40;54.70;;;;;;4990193;28;20054;-73
2022/07/20 09:30:04;;;;;;;4.93;2.63;;;28.40;54.90;;;;;;4990090;28;19945;-73
2022/07/20 09:32:31;;;;;;;6.65;2.80;;;28.40;54.90;;;;;;4992068;28;20058;-73
2022/07/20 09:35:02;;;;;;;7.03;3.00;;;28.40;54.80;;;;;;4993316;28;20129;-73
2022/07/20 09:37:38;;;;;;;5.03;2.72;;;28.40;54.80;;;;;;4994297;28;20137;-73
2022/07/20 09:40:06;;;;;;;6.95;2.85;;;28.40;54.90;;;;;;4993399;28;20058;-73
2022/07/20 09:42:37;;;;;;;5.53;2.97;;;28.40;54.80;;;;;;4993438;28;20060;-72
2022/07/20 09:45:18;;;;;;;7.10;2.90;;;28.50;54.90;;;;;;4993189;28;20133;-73
2022/07/20 09:48:01;;;;;;;;;;;28.40;54.90;;;;;;4994705;28;20141;-73
2022/07/20 09:50:29;;;;;;;5.20;3.50;;;28.40;55.00;;;;;;4994203;28;19945;-72
2022/07/20 09:52:56;;;;;;;5.07;2.90;;;28.40;55.00;;;;;;5008059;28;20054;-73
2022/07/20 09:55:23;;;;;;;6.50;3.15;;;28.50;55.10;;;;;;5012422;28;20053;-73
2022/07/20 09:57:50;;;;;;;4.78;3.30;;;28.40;55.10;;;;;;5012376;28;20056;-73
2022/07/20 10:00:17;;;;;;;3.83;3.08;;;28.40;55.00;;;;;;5009939;28;20418;-74
2022/07/20 10:02:45;;;;;;;4.63;3.00;;;28.30;55.00;;;;;;4992246;28;20141;-73
2022/07/20 10:05:12;;;;;;;4.88;3.05;;;28.30;55.00;;;;;;5006715;28;20129;-74
2022/07/20 10:07:41;;;;;;;5.22;3.35;;;28.30;55.10;;;;;;5007424;28;20543;-74
2022/07/20 10:10:09;;;;;;;6.28;3.33;;;28.30;55.30;;;;;;5012426;28;20062;-74
2022/07/20 10:12:36;;;;;;;4.43;3.13;;;28.30;55.40;;;;;;5012316;28;20137;-74
2022/07/20 10:15:03;;;;;;;4.95;3.38;;;28.30;55.50;;;;;;5011888;28;20141;-74
2022/07/20 10:17:36;;;;;;;4.53;3.40;;;28.30;55.50;;;;;;5012052;28;20144;-74
2022/07/20 10:20:08;;;;;;;5.63;3.47;;;28.20;55.70;;;;;;5012414;28;20053;-74
2022/07/20 10:22:35;;;;;;;5.60;3.40;;;28.20;55.50;;;;;;5002823;28;20093;-74
2022/07/20 10:25:17;;;;;;;5.15;3.60;;;28.20;55.60;;;;;;4991940;28;20669;-74
2022/07/20 10:27:44;;;;;;;5.07;3.45;;;28.20;56.20;;;;;;4991928;28;20141;-77
2022/07/20 10:30:18;;;;;;;4.60;3.40;;;28.10;55.60;;;;;;4992591;28;20144;-75
2022/07/20 10:32:52;;;;;;;4.73;3.50;;;28.20;55.70;;;;;;4992497;28;20054;-75
2022/07/20 10:35:26;;;;;;;6.20;3.75;;;28.10;55.70;;;;;;4992378;28;20663;-74
2022/07/20 10:37:54;;;;;;;5.05;3.63;;;28.10;55.70;;;;;;4992108;28;20455;-75
2022/07/20 10:40:22;;;;;;;5.80;3.65;;;28.10;55.80;;;;;;4993490;28;20064;-75
2022/07/20 10:42:50;;;;;;;4.93;3.88;;;28.20;55.80;;;;;;4991713;28;20058;-75
2022/07/20 10:45:41;;;;;;;4.60;3.90;;;28.30;55.80;;;;;;4991931;28;20089;-75
2022/07/20 10:48:18;;;;;;;5.65;4.43;;;28.20;55.70;;;;;;4982170;28;20090;-75
2022/07/20 10:50:45;;;;;;;5.57;4.20;;;28.10;55.70;;;;;;4992141;28;20101;-75
2022/07/20 10:53:32;;;;;;;6.20;4.88;;;28.10;55.70;;;;;;4991799;28;20069;-75
2022/07/20 10:56:00;;;;;;;6.20;4.30;;;28.10;55.70;;;;;;4992765;28;20141;-74
2022/07/20 10:58:27;;;;;;;6.35;4.70;;;28.10;55.70;;;;;;4992821;28;20047;-74
2022/07/20 11:00:57;;;;;;;6.57;4.43;;;28.10;55.70;;;;;;4991527;28;20751;-74
2022/07/20 11:03:27;;;;;;;9.10;5.53;;;28.10;56.30;;;;;;4991275;28;20089;-74
2022/07/20 11:06:01;;;;;;;12.25;9.15;;;28.20;55.90;;;;;;4991411;28;20086;-74
2022/07/20 11:08:28;;;;;;;11.20;7.35;;;28.10;55.90;;;;;;4991800;28;20142;-74
2022/07/20 11:10:56;;;;;;;8.35;6.50;;;28.00;55.50;;;;;;4992616;28;20073;-75
2022/07/20 11:13:24;;;;;;;9.20;7.20;;;28.30;56.10;;;;;;4991293;28;20058;-74
2022/07/20 11:15:52;;;;;;;9.65;7.55;;;28.20;56.00;;;;;;4990929;28;20401;-74
2022/07/20 11:18:20;;;;;;;10.27;7.43;;;28.20;56.00;;;;;;4991240;28;20056;-74
2022/07/20 11:20:47;;;;;;;8.38;6.82;;;28.20;55.90;;;;;;4991009;28;20060;-74
2022/07/20 11:23:14;;;;;;;12.73;7.25;;;28.30;56.00;;;;;;4990814;28;20050;-74
2022/07/20 11:25:45;;;;;;;11.52;7.10;;;28.20;55.80;;;;;;4991350;28;20327;-74
2022/07/20 11:28:12;;;;;;;9.60;7.22;;;28.30;55.90;;;;;;4989043;28;20212;-74
2022/07/20 11:30:42;;;;;;;8.63;6.82;;;28.20;55.80;;;;;;4991085;28;20496;-74
2022/07/20 11:33:09;;;;;;;9.02;6.68;;;28.20;55.70;;;;;;5004428;28;20050;-74
2022/07/20 11:35:36;;;;;;;9.90;7.20;;;28.20;55.70;;;;;;4974265;28;20062;-74
2022/07/20 11:38:03;;;;;;;8.13;6.82;;;28.30;55.80;;;;;;4990521;28;20050;-74
2022/07/20 11:40:29;;;;;;;9.80;7.15;;;28.30;55.80;;;;;;4991510;28;20060;-74
2022/07/20 11:43:07;;;;;;;9.10;7.13;;;28.30;55.70;;;;;;4990845;28;20057;-74
2022/07/20 11:45:33;;;;;;;8.05;7.25;;;28.30;55.70;;;;;;4990652;28;20297;-74
2022/07/20 11:48:03;;;;;;;7.95;7.13;;;28.30;55.70;;;;;;4990834;28;20746;-74
2022/07/20 11:50:31;;;;;;;10.77;7.28;;;28.30;55.70;;;;;;4991123;28;20054;-74
2022/07/20 11:52:58;;;;;;;8.88;7.40;;;28.30;55.80;;;;;;4990904;28;20054;-74
2022/07/20 11:55:34;;;;;;;9.55;7.63;;;28.30;55.70;;;;;;4995532;28;20132;-74
2022/07/20 11:58:01;;;;;;;9.13;6.78;;;28.30;56.00;;;;;;5010540;28;20541;-75
2022/07/20 12:00:28;;;;;;;9.32;7.00;;;28.30;55.80;;;;;;5010228;28;20060;-75
2022/07/20 12:02:55;;;;;;;10.18;7.15;;;28.30;55.80;;;;;;5010318;28;20054;-74
2022/07/20 12:05:23;;;;;;;9.50;7.25;;;28.30;55.80;;;;;;5009937;28;20134;-74
2022/07/20 12:10:34;;;;;;;9.80;7.30;;;28.20;55.80;;;;;;5000956;28;20107;-75
2022/07/20 12:13:04;;;;;;;9.85;7.07;;;28.20;55.90;;;;;;4990533;28;20070;-75
2022/07/20 12:15:31;;;;;;;10.13;6.93;;;28.20;55.90;;;;;;4990254;28;20133;-74
2022/07/20 12:17:57;;;;;;;8.30;7.00;;;28.30;56.00;;;;;;4990489;28;20054;-75
2022/07/20 12:20:26;;;;;;;7.63;6.90;;;28.20;55.90;;;;;;4990559;28;20535;-75
2022/07/20 12:22:56;;;;;;;9.70;6.80;;;28.20;55.90;;;;;;4990125;28;20068;-74
2022/07/20 12:25:23;;;;;;;8.50;7.07;;;28.30;56.00;;;;;;4999428;28;20164;-74
2022/07/20 12:27:50;;;;;;;12.48;6.82;;;28.20;56.00;;;;;;5011009;28;20056;-74
2022/07/20 12:30:25;;;;;;;8.52;6.75;;;28.20;56.00;;;;;;5010274;28;20145;-74
2022/07/20 12:33:02;;;;;;;7.50;6.70;;;28.20;56.00;;;;;;5009674;28;20503;-75
2022/07/20 12:35:30;;;;;;;9.23;7.47;;;28.20;56.00;;;;;;5010059;28;20057;-75
2022/07/20 12:37:57;;;;;;;7.47;6.78;;;28.20;56.10;;;;;;5009769;28;20056;-75
2022/07/20 12:40:32;;;;;;;8.40;6.75;;;28.50;56.30;;;;;;5007890;28;20111;-75
2022/07/20 12:42:58;;;;;;;;;;;28.20;56.10;;;;;;5010319;28;20543;-74
2022/07/20 12:45:25;;;;;;;7.38;6.57;;;28.20;56.10;;;;;;5010185;28;19996;-74
2022/07/20 12:47:52;;;;;;;6.97;6.28;;;28.10;56.20;;;;;;5009484;28;20484;-74
2022/07/20 12:50:19;;;;;;;7.63;6.40;;;28.10;56.20;;;;;;5010091;28;20064;-75
2022/07/20 12:52:47;;;;;;;9.13;6.90;;;28.20;56.30;;;;;;5009651;28;20058;-74
2022/07/20 12:55:14;;;;;;;7.68;6.20;;;28.10;56.20;;;;;;5007038;28;20050;-75
2022/07/20 12:57:41;;;;;;;7.72;6.65;;;28.20;56.30;;;;;;4990028;28;20047;-75